createdAt,value
2023-03-29T03:02:07.961Z,-1.58
2023-03-29T03:04:36.695Z,-1.59
2023-03-29T03:07:06.608Z,-1.62
2023-03-29T03:09:36.457Z,-1.65
2023-03-29T03:12:05.628Z,-1.68
2023-03-29T03:14:34.933Z,-1.68
2023-03-29T03:17:04.934Z,-1.73
2023-03-29T03:19:34.869Z,-1.71
2023-03-29T03:22:08.359Z,-1.72
2023-03-29T03:24:40.054Z,-1.74
2023-03-29T03:27:09.436Z,-1.77
2023-03-29T03:29:39.214Z,-1.78
2023-03-29T03:32:21.238Z,-1.78
2023-03-29T03:34:57.412Z,-1.77
2023-03-29T03:37:29.222Z,-1.79
2023-03-29T03:39:58.905Z,-1.82
2023-03-29T03:42:29.967Z,-1.85
2023-03-29T03:45:00.521Z,-1.88
2023-03-29T03:47:48.637Z,-1.86
2023-03-29T03:50:26.283Z,-1.84
2023-03-29T03:52:55.193Z,-1.86
2023-03-29T03:55:24.304Z,-1.90
2023-03-29T03:58:05.273Z,-1.93
2023-03-29T04:00:34.765Z,-1.98
2023-03-29T04:03:15.970Z,-2.00
2023-03-29T04:05:46.646Z,-1.97
2023-03-29T04:08:16.552Z,-1.97
2023-03-29T04:11:04.848Z,-1.97
2023-03-29T04:13:39.046Z,-1.96
2023-03-29T04:16:32.815Z,-1.95
2023-03-29T04:19:14.320Z,-1.96
2023-03-29T04:21:46.996Z,-1.96
2023-03-29T04:24:17.820Z,-1.94
2023-03-29T04:26:54.528Z,-1.94
2023-03-29T04:29:26.536Z,-1.97
2023-03-29T04:32:03.689Z,-1.98
2023-03-29T04:34:51.718Z,-1.98
2023-03-29T04:37:22.606Z,-1.99
2023-03-29T04:39:52.964Z,-1.98
2023-03-29T04:42:22.227Z,-1.94
2023-03-29T04:44:51.492Z,-1.88
2023-03-29T04:47:24.073Z,-1.88
2023-03-29T04:49:58.598Z,-1.82
2023-03-29T04:52:36.846Z,-1.77
2023-03-29T04:55:07.657Z,-1.73
2023-03-29T04:58:11.096Z,-1.70
2023-03-29T05:00:43.700Z,-1.68
2023-03-29T05:03:24.750Z,-1.66
2023-03-29T05:06:10.731Z,-1.59
2023-03-29T05:08:41.490Z,-1.55
2023-03-29T05:11:26.106Z,-1.48
2023-03-29T05:13:57.538Z,-1.42
2023-03-29T05:16:31.125Z,-1.39
2023-03-29T05:19:00.667Z,-1.40
2023-03-29T05:21:34.100Z,-1.33
2023-03-29T05:24:04.944Z,-1.28
2023-03-29T05:26:59.010Z,-1.07
2023-03-29T05:29:29.672Z,-0.87
2023-03-29T05:32:12.251Z,-0.70
2023-03-29T05:34:41.821Z,-0.51
2023-03-29T05:37:10.871Z,-0.36
2023-03-29T05:39:51.896Z,-0.25
2023-03-29T05:42:23.284Z,-0.13
2023-03-29T05:44:59.333Z,0.04
2023-03-29T05:47:28.983Z,0.11
2023-03-29T05:49:58.144Z,0.20
2023-03-29T05:52:28.156Z,0.40
2023-03-29T05:54:57.049Z,0.61
2023-03-29T05:57:26.198Z,0.81
2023-03-29T05:59:55.688Z,0.97
2023-03-29T06:02:26.127Z,1.11
2023-03-29T06:04:55.619Z,1.30
2023-03-29T06:07:25.292Z,1.50
2023-03-29T06:10:12.932Z,1.83
2023-03-29T06:12:45.800Z,2.19
2023-03-29T06:15:15.938Z,2.61
2023-03-29T06:17:54.877Z,3.40
2023-03-29T06:20:23.799Z,3.99
2023-03-29T06:22:58.496Z,4.12
2023-03-29T06:25:30.013Z,4.25
2023-03-29T06:27:59.762Z,4.41
2023-03-29T06:30:29.604Z,4.51
2023-03-29T06:33:00.036Z,4.56
2023-03-29T06:35:47.222Z,4.46
2023-03-29T06:38:21.697Z,4.34
2023-03-29T06:41:05.670Z,4.09
2023-03-29T06:43:51.395Z,3.82
2023-03-29T06:46:24.439Z,3.64
2023-03-29T06:48:58.614Z,3.56
2023-03-29T06:51:36.294Z,3.48
2023-03-29T06:54:05.657Z,3.41
2023-03-29T06:56:35.420Z,3.34
2023-03-29T06:59:08.794Z,3.28
2023-03-29T07:01:49.185Z,3.22
2023-03-29T07:04:27.907Z,3.20
2023-03-29T07:07:20.726Z,3.19
2023-03-29T07:09:57.107Z,3.12
2023-03-29T07:12:31.984Z,3.11
2023-03-29T07:15:02.596Z,3.12
2023-03-29T07:17:51.784Z,3.18
2023-03-29T07:20:24.114Z,3.25
2023-03-29T07:23:04.574Z,3.32
2023-03-29T07:25:34.592Z,3.33
2023-03-29T07:28:04.142Z,3.37
2023-03-29T07:30:33.720Z,3.40
2023-03-29T07:33:22.420Z,3.46
2023-03-29T07:35:55.788Z,3.54
2023-03-29T07:38:55.903Z,3.61
2023-03-29T07:41:26.972Z,3.69
2023-03-29T07:44:18.806Z,3.79
2023-03-29T07:46:48.100Z,3.88
2023-03-29T07:49:17.303Z,3.96
2023-03-29T07:51:46.117Z,4.02
2023-03-29T07:54:15.475Z,4.05
2023-03-29T07:56:49.872Z,4.09
2023-03-29T07:59:25.397Z,4.13
2023-03-29T08:02:02.655Z,4.21
2023-03-29T08:04:36.657Z,4.32
2023-03-29T08:07:32.849Z,4.42
2023-03-29T08:10:28.184Z,4.52
2023-03-29T08:13:20.993Z,4.59
2023-03-29T08:16:09.436Z,4.65
2023-03-29T08:18:42.763Z,4.74
2023-03-29T08:21:11.559Z,4.83
2023-03-29T08:23:41.325Z,4.92
2023-03-29T08:26:23.906Z,4.94
2023-03-29T08:28:52.662Z,4.98
2023-03-29T08:31:22.135Z,5.05
2023-03-29T08:33:50.364Z,5.13
2023-03-29T08:36:37.475Z,5.22
2023-03-29T08:39:11.697Z,5.29
2023-03-29T08:41:50.423Z,5.32
2023-03-29T08:44:37.317Z,5.35
2023-03-29T08:47:34.790Z,5.40
2023-03-29T08:50:16.897Z,5.45
2023-03-29T08:52:55.939Z,5.51
2023-03-29T08:55:50.103Z,5.58
2023-03-29T08:58:38.764Z,5.65
2023-03-29T09:01:10.016Z,5.72
2023-03-29T09:04:06.007Z,5.78
2023-03-29T09:06:58.458Z,5.87
2023-03-29T09:09:33.097Z,5.92
2023-03-29T09:12:21.323Z,5.94
2023-03-29T09:15:05.325Z,5.95
2023-03-29T09:17:33.920Z,5.94
2023-03-29T09:20:27.873Z,5.96
2023-03-29T09:23:07.149Z,5.99
2023-03-29T09:25:54.200Z,6.01
2023-03-29T09:28:35.112Z,6.02
2023-03-29T09:31:10.651Z,6.01
2023-03-29T09:33:53.995Z,6.00
2023-03-29T09:36:47.291Z,5.97
2023-03-29T09:39:17.280Z,6.02
2023-03-29T09:41:53.209Z,6.06
2023-03-29T09:44:32.227Z,6.02
2023-03-29T09:47:19.370Z,6.03
2023-03-29T09:49:51.453Z,6.01
2023-03-29T09:52:21.445Z,6.02
2023-03-29T09:55:00.414Z,6.05
2023-03-29T09:58:15.692Z,6.14
2023-03-29T10:00:48.524Z,6.21
2023-03-29T10:03:20.153Z,6.28
2023-03-29T10:05:56.467Z,6.37
2023-03-29T10:08:48.123Z,6.38
2023-03-29T10:11:24.233Z,6.44
2023-03-29T10:13:57.784Z,6.50
2023-03-29T10:16:30.748Z,6.60
2023-03-29T10:18:59.272Z,6.68
2023-03-29T10:21:29.218Z,6.73
2023-03-29T10:23:59.653Z,6.72
2023-03-29T10:26:33.484Z,6.74
2023-03-29T10:29:04.832Z,6.77
2023-03-29T10:31:38.488Z,6.82
2023-03-29T10:34:09.180Z,6.83
2023-03-29T10:36:41.711Z,6.83
2023-03-29T10:39:16.702Z,6.87
2023-03-29T10:41:45.852Z,6.93
2023-03-29T10:44:33.116Z,6.95
2023-03-29T10:47:20.725Z,6.99
2023-03-29T10:49:57.517Z,7.10
2023-03-29T10:52:27.071Z,7.17
2023-03-29T10:54:56.858Z,7.23
2023-03-29T10:57:25.757Z,7.27
2023-03-29T11:00:10.180Z,7.29
2023-03-29T11:02:48.607Z,7.34
2023-03-29T11:05:20.883Z,7.39
2023-03-29T11:08:30.490Z,7.44
2023-03-29T11:11:33.859Z,7.48
2023-03-29T11:14:03.339Z,7.50
2023-03-29T11:16:42.673Z,7.53
2023-03-29T11:19:20.635Z,7.58
2023-03-29T11:21:50.341Z,7.67
2023-03-29T11:24:19.321Z,7.76
2023-03-29T11:27:08.109Z,7.87
2023-03-29T11:29:58.113Z,7.89
2023-03-29T11:32:30.647Z,7.85
2023-03-29T11:35:19.385Z,7.84
2023-03-29T11:38:18.799Z,7.91
2023-03-29T11:40:53.967Z,7.95
2023-03-29T11:43:23.078Z,7.94
2023-03-29T11:45:55.373Z,7.93
2023-03-29T11:48:29.777Z,7.93
2023-03-29T11:51:04.428Z,7.94
2023-03-29T11:53:39.521Z,7.96
2023-03-29T11:56:14.933Z,7.98
2023-03-29T11:58:46.693Z,8.03
2023-03-29T12:01:18.677Z,8.08
2023-03-29T12:03:51.230Z,8.12
2023-03-29T12:06:29.236Z,8.13
2023-03-29T12:09:07.716Z,8.13
2023-03-29T12:12:00.162Z,8.19
2023-03-29T12:14:33.422Z,8.25
2023-03-29T12:17:05.691Z,8.28
2023-03-29T12:19:50.637Z,8.35
2023-03-29T12:22:21.276Z,8.40
2023-03-29T12:24:53.001Z,8.41
2023-03-29T12:27:26.618Z,8.45
2023-03-29T12:29:55.440Z,8.53
2023-03-29T12:32:43.855Z,8.63
2023-03-29T12:35:42.868Z,8.70
2023-03-29T12:38:31.842Z,8.68
2023-03-29T12:41:25.907Z,8.70
2023-03-29T12:44:21.122Z,8.74
2023-03-29T12:47:00.756Z,8.81
2023-03-29T12:49:33.506Z,8.83
2023-03-29T12:52:04.340Z,8.84
2023-03-29T12:54:34.049Z,8.86
2023-03-29T12:57:19.190Z,8.82
2023-03-29T12:59:48.724Z,8.78
2023-03-29T13:02:18.729Z,8.77
2023-03-29T13:04:52.799Z,8.80
2023-03-29T13:07:24.570Z,8.82
2023-03-29T13:09:53.376Z,8.83
2023-03-29T13:12:23.399Z,8.83
2023-03-29T13:15:01.073Z,8.84
2023-03-29T13:17:48.972Z,8.82
2023-03-29T13:20:26.872Z,8.77
2023-03-29T13:22:58.478Z,8.72
2023-03-29T13:25:52.555Z,8.70
2023-03-29T13:28:27.162Z,8.79
2023-03-29T13:31:00.706Z,8.86
2023-03-29T13:33:42.054Z,8.93
2023-03-29T13:36:16.804Z,9.05
2023-03-29T13:38:53.922Z,9.16
2023-03-29T13:41:33.954Z,9.21
2023-03-29T13:44:03.279Z,9.23
2023-03-29T13:46:42.121Z,9.24
2023-03-29T13:49:19.980Z,9.23
2023-03-29T13:52:01.352Z,9.19
2023-03-29T13:54:37.526Z,9.19
2023-03-29T13:57:09.800Z,9.20
2023-03-29T13:59:58.121Z,9.21
2023-03-29T14:02:33.723Z,9.26
2023-03-29T14:05:04.877Z,9.30
2023-03-29T14:07:34.288Z,9.33
2023-03-29T14:10:03.935Z,9.38
2023-03-29T14:12:41.920Z,9.43
2023-03-29T14:15:29.242Z,9.49
2023-03-29T14:18:00.331Z,9.51
2023-03-29T14:20:31.816Z,9.50
2023-03-29T14:23:01.031Z,9.49
2023-03-29T14:25:29.616Z,9.52
2023-03-29T14:27:58.390Z,9.54
2023-03-29T14:30:28.610Z,9.56
2023-03-29T14:32:57.803Z,9.57
2023-03-29T14:35:31.556Z,9.59
2023-03-29T14:38:01.215Z,9.64
2023-03-29T14:40:32.280Z,9.70
2023-03-29T14:43:05.293Z,9.75
2023-03-29T14:45:33.845Z,9.75
2023-03-29T14:48:05.917Z,9.74
2023-03-29T14:50:39.926Z,9.69
2023-03-29T14:53:20.151Z,9.61
2023-03-29T14:55:54.581Z,9.56
2023-03-29T14:58:34.957Z,9.49
2023-03-29T15:01:17.822Z,9.44
2023-03-29T15:03:57.542Z,9.38
2023-03-29T15:06:28.034Z,9.32
2023-03-29T15:09:06.100Z,9.28
2023-03-29T15:11:36.771Z,9.21
2023-03-29T15:14:07.878Z,9.17
2023-03-29T15:16:41.954Z,9.15
2023-03-29T15:19:14.709Z,9.16
2023-03-29T15:21:44.938Z,9.17
2023-03-29T15:24:39.872Z,9.17
2023-03-29T15:27:14.726Z,9.18
2023-03-29T15:29:44.730Z,9.15
2023-03-29T15:32:24.020Z,9.13
2023-03-29T15:35:00.145Z,9.10
2023-03-29T15:37:30.208Z,9.08
2023-03-29T15:39:59.633Z,9.05
2023-03-29T15:42:28.726Z,9.02
2023-03-29T15:44:57.595Z,9.00
2023-03-29T15:47:26.715Z,8.99
2023-03-29T15:49:55.559Z,8.97
2023-03-29T15:52:24.761Z,8.95
2023-03-29T15:54:53.075Z,8.91
2023-03-29T15:57:22.508Z,8.90
2023-03-29T15:59:51.776Z,8.88
2023-03-29T16:02:22.275Z,8.84
2023-03-29T16:04:51.091Z,8.79
2023-03-29T16:07:21.203Z,8.78
2023-03-29T16:09:49.722Z,8.74
2023-03-29T16:12:18.184Z,8.71
2023-03-29T16:14:47.637Z,8.70
2023-03-29T16:17:17.018Z,8.68
2023-03-29T16:19:45.852Z,8.66
2023-03-29T16:22:14.176Z,8.67
2023-03-29T16:24:44.131Z,8.66
2023-03-29T16:27:13.142Z,8.65
2023-03-29T16:29:42.104Z,8.61
2023-03-29T16:32:11.506Z,8.53
2023-03-29T16:34:41.670Z,8.50
2023-03-29T16:37:10.700Z,8.47
2023-03-29T16:39:39.978Z,8.42
2023-03-29T16:42:11.938Z,8.39
2023-03-29T16:44:41.074Z,8.38
2023-03-29T16:47:11.010Z,8.34
2023-03-29T16:49:40.413Z,8.32
2023-03-29T16:52:09.868Z,8.28
2023-03-29T16:54:39.194Z,8.21
2023-03-29T16:57:07.850Z,8.13
2023-03-29T16:59:36.684Z,8.03
2023-03-29T17:02:05.632Z,7.96
2023-03-29T17:04:34.364Z,7.90
2023-03-29T17:07:04.417Z,7.83
2023-03-29T17:09:34.116Z,7.77
2023-03-29T17:12:03.244Z,7.67
2023-03-29T17:15:06.527Z,7.58
2023-03-29T17:17:35.615Z,7.50
2023-03-29T17:20:06.654Z,7.43
2023-03-29T17:22:36.164Z,7.36
2023-03-29T17:25:07.418Z,7.30
2023-03-29T17:27:38.255Z,7.27
2023-03-29T17:30:07.310Z,7.24
2023-03-29T17:32:36.857Z,7.19
2023-03-29T17:35:05.855Z,7.17
2023-03-29T17:37:34.957Z,7.14
2023-03-29T17:40:14.939Z,7.12
2023-03-29T17:42:46.671Z,7.09
2023-03-29T17:45:15.988Z,7.05
2023-03-29T17:47:44.967Z,7.00
2023-03-29T17:50:13.959Z,6.95
2023-03-29T17:52:42.283Z,6.92
2023-03-29T17:55:13.683Z,6.92
2023-03-29T17:57:42.470Z,6.92
2023-03-29T18:00:12.679Z,6.90
2023-03-29T18:02:41.600Z,6.89
2023-03-29T18:05:15.485Z,6.92
2023-03-29T18:07:46.600Z,6.92
2023-03-29T18:10:15.081Z,6.94
2023-03-29T18:12:45.499Z,6.98
2023-03-29T18:15:14.515Z,6.99
2023-03-29T18:17:43.752Z,6.97
2023-03-29T18:20:13.308Z,6.95
2023-03-29T18:22:42.580Z,6.92
2023-03-29T18:25:16.750Z,6.93
2023-03-29T18:27:48.270Z,6.92
2023-03-29T18:30:17.558Z,6.91
2023-03-29T18:32:46.065Z,6.92
2023-03-29T18:35:14.598Z,6.92
2023-03-29T18:37:42.820Z,6.91
2023-03-29T18:40:12.476Z,6.94
2023-03-29T18:42:41.736Z,6.98
2023-03-29T18:45:10.831Z,6.99
2023-03-29T18:47:39.234Z,7.01
2023-03-29T18:50:09.752Z,7.00
2023-03-29T18:52:38.091Z,6.96
2023-03-29T18:55:07.344Z,6.97
2023-03-29T18:57:36.085Z,6.97
2023-03-29T19:00:10.789Z,6.98
2023-03-29T19:02:41.931Z,6.98
2023-03-29T19:05:11.090Z,6.94
2023-03-29T19:07:39.394Z,6.93
2023-03-29T19:10:08.524Z,6.91
2023-03-29T19:12:36.916Z,6.94
2023-03-29T19:15:05.486Z,6.98
2023-03-29T19:17:33.962Z,6.98
2023-03-29T19:20:02.315Z,6.94
2023-03-29T19:22:31.386Z,6.90
2023-03-29T19:24:59.734Z,6.88
2023-03-29T19:27:28.140Z,6.84
2023-03-29T19:29:56.297Z,6.82
2023-03-29T19:32:24.731Z,6.81
2023-03-29T19:34:53.454Z,6.78
2023-03-29T19:37:21.834Z,6.75
2023-03-29T19:39:50.180Z,6.72
2023-03-29T19:42:18.472Z,6.67
2023-03-29T19:44:47.063Z,6.66
2023-03-29T19:47:16.457Z,6.65
2023-03-29T19:49:47.703Z,6.63
2023-03-29T19:52:16.758Z,6.56
2023-03-29T19:54:46.267Z,6.51
2023-03-29T19:57:14.736Z,6.53
2023-03-29T19:59:43.300Z,6.52
2023-03-29T20:02:11.951Z,6.49
2023-03-29T20:04:40.916Z,6.47
2023-03-29T20:07:09.741Z,6.49
2023-03-29T20:09:38.368Z,6.53
2023-03-29T20:12:06.833Z,6.57
2023-03-29T20:14:37.801Z,6.61
2023-03-29T20:17:07.365Z,6.64
2023-03-29T20:19:38.221Z,6.62
2023-03-29T20:22:09.364Z,6.60
2023-03-29T20:24:38.160Z,6.59
2023-03-29T20:27:07.430Z,6.58
2023-03-29T20:29:37.592Z,6.58
2023-03-29T20:32:07.766Z,6.63
2023-03-29T20:34:37.974Z,6.64
2023-03-29T20:37:07.963Z,6.66
2023-03-29T20:39:37.520Z,6.68
2023-03-29T20:42:06.577Z,6.68
2023-03-29T20:44:35.523Z,6.66
2023-03-29T20:47:05.254Z,6.64
2023-03-29T20:49:37.920Z,6.60
2023-03-29T20:52:08.617Z,6.55
2023-03-29T20:54:39.976Z,6.55
2023-03-29T20:57:10.378Z,6.55
2023-03-29T20:59:39.735Z,6.58
2023-03-29T21:02:12.043Z,6.60
2023-03-29T21:04:43.526Z,6.62
2023-03-29T21:07:13.586Z,6.62
2023-03-29T21:09:42.740Z,6.60
2023-03-29T21:12:11.818Z,6.59
2023-03-29T21:14:40.307Z,6.56
2023-03-29T21:17:09.755Z,6.55
2023-03-29T21:19:40.123Z,6.54
2023-03-29T21:22:10.903Z,6.53
2023-03-29T21:24:40.295Z,6.52
2023-03-29T21:27:09.720Z,6.50
2023-03-29T21:29:39.053Z,6.55
2023-03-29T21:32:08.378Z,6.57
2023-03-29T21:34:38.132Z,6.60
2023-03-29T21:37:07.905Z,6.61
2023-03-29T21:39:37.443Z,6.57
2023-03-29T21:42:06.756Z,6.57
2023-03-29T21:44:36.952Z,6.57
2023-03-29T21:47:06.571Z,6.56
2023-03-29T21:49:35.718Z,6.55
2023-03-29T21:52:04.617Z,6.53
2023-03-29T21:54:34.802Z,6.52
2023-03-29T21:57:03.930Z,6.53
2023-03-29T21:59:33.610Z,6.55
2023-03-29T22:02:02.673Z,6.54
2023-03-29T22:04:37.078Z,6.55
2023-03-29T22:07:08.833Z,6.52
2023-03-29T22:09:38.485Z,6.54
2023-03-29T22:12:07.498Z,6.57
2023-03-29T22:14:36.619Z,6.56
2023-03-29T22:17:08.929Z,6.53
2023-03-29T22:19:42.590Z,6.54
2023-03-29T22:22:14.484Z,6.59
2023-03-29T22:24:43.631Z,6.63
2023-03-29T22:27:12.616Z,6.64
2023-03-29T22:29:41.659Z,6.68
2023-03-29T22:32:10.904Z,6.70
2023-03-29T22:34:40.383Z,6.68
2023-03-29T22:37:09.378Z,6.64
2023-03-29T22:39:38.625Z,6.65
2023-03-29T22:42:07.394Z,6.69
2023-03-29T22:44:36.714Z,6.71
2023-03-29T22:47:05.841Z,6.71
2023-03-29T22:49:34.171Z,6.70
2023-03-29T22:52:03.263Z,6.69
2023-03-29T22:54:32.268Z,6.70
2023-03-29T22:57:01.319Z,6.70
2023-03-29T22:59:30.417Z,6.71
2023-03-29T23:01:59.558Z,6.72
2023-03-29T23:04:28.411Z,6.70
2023-03-29T23:06:57.285Z,6.67
2023-03-29T23:09:26.377Z,6.65
2023-03-29T23:11:57.009Z,6.65
2023-03-29T23:14:26.144Z,6.65
2023-03-29T23:16:55.215Z,6.63
2023-03-29T23:19:24.638Z,6.60
2023-03-29T23:21:53.786Z,6.58
2023-03-29T23:24:22.977Z,6.58
2023-03-29T23:26:51.884Z,6.57
2023-03-29T23:29:21.041Z,6.59
2023-03-29T23:31:51.179Z,6.60
2023-03-29T23:34:20.834Z,6.57
2023-03-29T23:36:50.033Z,6.54
2023-03-29T23:39:19.093Z,6.56
2023-03-29T23:41:48.130Z,6.57
2023-03-29T23:44:17.244Z,6.55
2023-03-29T23:46:46.171Z,6.56
2023-03-29T23:49:16.920Z,6.57
2023-03-29T23:51:48.480Z,6.57
2023-03-29T23:54:17.633Z,6.53
2023-03-29T23:56:47.227Z,6.52
2023-03-29T23:59:16.971Z,6.54
